Time;durP1;ratioP1;P1;durP2;ratioP2;P2;SDS_P1;SDS_P2;PMS_P1;PMS_P2;Temp;Humidity;BMP_temperature;BMP_pressure;BME280_temperature;BME280_humidity;BME280_pressure;Samples;Min_cycle;Max_cycle;Signal;HPM_P1;HPM_P2
2023/12/26 00:01:27;;;;;;;0.35;0.10;;;;;;;12.62;94.61;100334.50;5024729;28;20065;-68
2023/12/26 00:03:53;;;;;;;0.10;0.10;;;;;;;12.67;94.19;100329.22;5026686;28;20038;-68
2023/12/26 00:06:20;;;;;;;0.40;0.20;;;;;;;12.68;93.54;100323.13;5027692;28;20026;-68
2023/12/26 00:08:46;;;;;;;0.40;0.20;;;;;;;12.65;94.21;100338.75;5028073;28;20048;-68
2023/12/26 00:11:12;;;;;;;0.10;0.10;;;;;;;12.65;93.99;100329.22;5026497;28;20057;-68
2023/12/26 00:13:37;;;;;;;0.10;0.10;;;;;;;12.63;94.36;100332.75;5026364;28;20515;-67
2023/12/26 00:16:03;;;;;;;0.57;0.20;;;;;;;12.64;93.60;100329.28;5057718;28;20036;-67
2023/12/26 00:18:29;;;;;;;2.25;0.20;;;;;;;12.66;93.03;100324.91;5006282;28;20141;-68
2023/12/26 00:20:54;;;;;;;0.10;0.10;;;;;;;12.67;92.68;100318.84;5009508;28;20038;-68
2023/12/26 00:23:20;;;;;;;0.22;0.15;;;;;;;12.66;92.34;100311.94;5026187;28;20049;-67
2023/12/26 00:25:46;;;;;;;0.13;0.13;;;;;;;12.65;92.44;100310.22;5056349;28;20030;-67
2023/12/26 00:28:13;;;;;;;0.80;0.20;;;;;;;12.64;92.09;100306.81;5025110;28;20133;-68
2023/12/26 00:30:40;;;;;;;1.40;0.22;;;;;;;12.63;91.97;100304.22;5027158;28;20037;-67
2023/12/26 00:33:05;;;;;;;0.10;0.10;;;;;;;12.61;91.30;100298.25;5028574;28;20045;-66
2023/12/26 00:35:30;;;;;;;0.20;0.20;;;;;;;12.62;90.61;100292.16;5026728;28;20041;-67
2023/12/26 00:37:58;;;;;;;0.20;0.20;;;;;;;12.67;89.67;100296.34;5023547;28;20116;-67
2023/12/26 00:40:24;;;;;;;2.22;0.22;;;;;;;12.64;90.20;100300.75;5054727;28;20129;-68
2023/12/26 00:42:49;;;;;;;0.20;0.20;;;;;;;12.61;90.40;100301.69;5024087;28;20471;-67
2023/12/26 00:45:15;;;;;;;0.73;0.30;;;;;;;12.58;90.51;100306.94;5040467;28;20033;-67
2023/12/26 00:47:40;;;;;;;1.38;0.30;;;;;;;12.66;88.43;100288.59;5025257;28;20033;-68
2023/12/26 00:50:11;;;;;;;0.82;0.60;;;;;;;12.67;87.53;100275.59;5027116;28;20038;-68
2023/12/26 00:52:37;;;;;;;0.20;0.20;;;;;;;12.67;86.50;100285.97;5027004;28;20472;-68
2023/12/26 00:55:03;;;;;;;0.63;0.20;;;;;;;12.64;86.51;100285.22;5026092;28;20049;-67
2023/12/26 00:57:28;;;;;;;1.13;0.65;;;;;;;12.60;86.05;100278.38;5030572;28;20436;-68
2023/12/26 00:59:54;;;;;;;0.20;0.20;;;;;;;12.59;85.72;100271.47;5025113;28;20041;-68
2023/12/26 01:02:21;;;;;;;0.40;0.20;;;;;;;12.52;86.20;100280.31;5025929;28;20049;-68
2023/12/26 01:04:47;;;;;;;1.95;0.30;;;;;;;12.43;86.84;100291.75;5025652;28;20512;-68
2023/12/26 01:07:12;;;;;;;0.47;0.30;;;;;;;12.37;86.69;100287.56;5025258;28;20025;-68
2023/12/26 01:09:37;;;;;;;0.38;0.25;;;;;;;12.35;86.10;100281.56;5025826;28;20528;-68
2023/12/26 01:12:03;;;;;;;1.00;0.30;;;;;;;12.28;86.60;100287.78;5024660;28;20041;-67
2023/12/26 01:14:29;;;;;;;0.30;0.20;;;;;;;12.19;87.10;100292.31;5026646;28;20041;-68
2023/12/26 01:16:54;;;;;;;0.82;0.30;;;;;;;12.16;86.75;100293.25;5027007;28;20118;-68
2023/12/26 01:19:20;;;;;;;0.30;0.30;;;;;;;12.13;86.91;100284.69;5024299;28;20033;-67
2023/12/26 01:21:45;;;;;;;0.40;0.30;;;;;;;12.13;85.88;100272.59;5028278;28;20068;-68
2023/12/26 01:24:11;;;;;;;0.52;0.50;;;;;;;12.11;86.40;100279.50;5056620;28;20037;-68
2023/12/26 01:26:36;;;;;;;0.22;0.20;;;;;;;12.09;85.60;100273.53;5022035;28;20041;-68
2023/12/26 01:29:04;;;;;;;2.05;0.30;;;;;;;12.08;85.66;100265.81;5024132;28;20438;-67
2023/12/26 01:31:33;;;;;;;0.43;0.40;;;;;;;12.10;85.73;100266.63;5024999;28;20025;-67
2023/12/26 01:33:58;;;;;;;2.08;0.60;;;;;;;12.08;85.41;100261.44;5055537;28;20551;-68
2023/12/26 01:36:24;;;;;;;0.75;0.50;;;;;;;12.09;85.18;100268.34;5037144;28;20050;-68
2023/12/26 01:38:49;;;;;;;1.80;0.50;;;;;;;12.13;85.07;100261.38;5021802;28;20217;-67
2023/12/26 01:41:15;;;;;;;4.30;1.00;;;;;;;12.12;85.18;100270.88;5023718;28;20048;-68
2023/12/26 01:43:40;;;;;;;1.38;0.60;;;;;;;12.10;85.41;100264.88;5009672;28;20112;-67
2023/12/26 01:46:07;;;;;;;1.90;0.40;;;;;;;12.09;85.14;100265.75;5054273;28;20036;-68
2023/12/26 01:48:33;;;;;;;0.90;0.40;;;;;;;12.07;85.65;100259.78;5037913;28;20633;-67
2023/12/26 01:51:00;;;;;;;1.08;0.50;;;;;;;12.07;85.85;100264.09;5036449;28;20037;-68
2023/12/26 01:53:26;;;;;;;1.00;0.40;;;;;;;12.09;84.77;100237.25;5021288;28;20048;-67
2023/12/26 01:55:52;;;;;;;0.32;0.32;;;;;;;12.08;84.85;100250.25;5021009;28;20505;-67
2023/12/26 01:58:17;;;;;;;0.93;0.43;;;;;;;12.07;84.72;100240.78;5025013;28;20072;-68
2023/12/26 02:00:43;;;;;;;0.40;0.22;;;;;;;12.03;84.77;100247.75;5026231;28;20033;-67
2023/12/26 02:03:08;;;;;;;0.63;0.20;;;;;;;12.01;85.08;100248.69;5026708;28;20034;-68
2023/12/26 02:05:34;;;;;;;2.13;0.45;;;;;;;11.99;84.73;100243.53;5026769;28;20454;-68
2023/12/26 02:07:59;;;;;;;0.30;0.30;;;;;;;11.96;85.86;100261.72;5032460;28;20021;-68
2023/12/26 02:10:25;;;;;;;0.98;0.30;;;;;;;11.92;85.75;100249.75;5019969;28;20017;-67
2023/12/26 02:12:51;;;;;;;0.55;0.30;;;;;;;11.90;85.96;100257.53;5025865;28;20516;-67
2023/12/26 02:15:16;;;;;;;2.00;0.30;;;;;;;11.91;85.75;100258.38;5020190;28;20081;-68
2023/12/26 02:17:43;;;;;;;0.47;0.30;;;;;;;11.87;85.89;100260.19;5027462;28;20044;-68
2023/12/26 02:20:09;;;;;;;0.47;0.20;;;;;;;11.87;86.11;100256.78;5026302;28;20153;-67
2023/12/26 02:22:35;;;;;;;0.63;0.30;;;;;;;11.86;86.29;100265.41;5027120;28;20159;-67
2023/12/26 02:25:01;;;;;;;1.30;0.30;;;;;;;11.84;87.00;100272.38;5035281;28;20029;-68
2023/12/26 02:27:29;;;;;;;1.15;0.30;;;;;;;11.80;87.45;100287.13;5030482;28;20515;-68
2023/12/26 02:29:56;;;;;;;2.40;0.40;;;;;;;11.79;87.44;100280.22;5031788;28;20037;-68
2023/12/26 02:32:23;;;;;;;0.20;0.20;;;;;;;11.77;87.64;100283.72;5030574;28;20040;-69
2023/12/26 02:34:54;;;;;;;1.65;0.30;;;;;;;11.74;87.92;100278.63;5047251;28;20112;-68
2023/12/26 02:37:20;;;;;;;0.65;0.30;;;;;;;11.74;87.87;100284.66;5029767;28;20041;-68
2023/12/26 02:39:46;;;;;;;2.72;0.50;;;;;;;11.76;87.88;100298.41;5029963;28;20048;-68
2023/12/26 02:42:12;;;;;;;0.38;0.30;;;;;;;11.78;87.76;100286.28;5031022;28;20034;-68
2023/12/26 02:44:38;;;;;;;1.50;0.55;;;;;;;11.75;88.79;100290.69;5031414;28;20052;-68
2023/12/26 02:47:03;;;;;;;1.10;0.20;;;;;;;11.74;88.68;100288.97;5014230;28;20029;-69
2023/12/26 02:49:29;;;;;;;1.27;0.43;;;;;;;11.72;88.61;100294.16;5044217;28;20459;-68
2023/12/26 02:51:54;;;;;;;7.45;0.40;;;;;;;11.73;88.76;100301.06;5046125;28;20045;-68
2023/12/26 02:54:20;;;;;;;0.25;0.25;;;;;;;11.72;89.02;100294.16;5061932;28;20706;-68
2023/12/26 02:56:46;;;;;;;1.08;0.40;;;;;;;11.71;88.99;100297.66;5062176;28;20041;-68
2023/12/26 02:59:11;;;;;;;1.35;0.20;;;;;;;11.69;89.89;100299.41;5030240;28;20112;-68
2023/12/26 03:01:37;;;;;;;0.60;0.28;;;;;;;11.66;90.44;100315.00;5044001;28;20270;-68
2023/12/26 03:04:02;;;;;;;1.27;0.30;;;;;;;11.63;90.87;100317.69;5061581;28;20121;-68
2023/12/26 03:06:28;;;;;;;2.10;0.47;;;;;;;11.58;92.22;100324.66;5030399;28;20100;-69
2023/12/26 03:08:53;;;;;;;0.55;0.20;;;;;;;11.53;92.88;100334.25;5029026;28;20042;-68
2023/12/26 03:11:19;;;;;;;0.90;0.30;;;;;;;11.53;92.38;100326.50;5063023;28;21408;-68
2023/12/26 03:13:44;;;;;;;1.20;0.10;;;;;;;11.50;92.91;100334.31;5029217;28;20040;-68
2023/12/26 03:16:10;;;;;;;0.50;0.20;;;;;;;11.48;93.03;100332.66;5028305;28;20370;-69
2023/12/26 03:18:35;;;;;;;0.40;0.32;;;;;;;11.48;94.00;100341.28;5030012;28;20531;-69
2023/12/26 03:21:00;;;;;;;0.70;0.30;;;;;;;11.38;95.76;100346.59;5030364;28;20489;-69
2023/12/26 03:23:26;;;;;;;0.20;0.20;;;;;;;11.24;98.23;100355.47;5044641;28;20041;-69
2023/12/26 03:25:51;;;;;;;0.40;0.20;;;;;;;11.12;100.00;100358.28;5063275;28;20030;-69
2023/12/26 03:28:17;;;;;;;0.77;0.30;;;;;;;11.04;100.00;100349.75;5045401;28;20522;-69
2023/12/26 03:30:42;;;;;;;1.52;0.20;;;;;;;10.95;100.00;100351.69;5027218;28;20599;-69
2023/12/26 03:33:08;;;;;;;0.70;0.30;;;;;;;10.88;100.00;100352.66;5035609;28;20034;-69
2023/12/26 03:35:33;;;;;;;0.52;0.30;;;;;;;10.84;100.00;100353.56;5034320;28;20063;-69
2023/12/26 03:37:59;;;;;;;0.20;0.20;;;;;;;10.76;100.00;100351.97;5046486;28;20089;-68
2023/12/26 03:40:24;;;;;;;0.38;0.30;;;;;;;10.69;100.00;100359.81;5041790;28;20042;-68
2023/12/26 03:42:50;;;;;;;0.32;0.13;;;;;;;10.66;100.00;100359.88;5043779;28;20310;-68
2023/12/26 03:45:16;;;;;;;0.38;0.15;;;;;;;10.64;100.00;100366.81;5026741;28;20029;-68
2023/12/26 03:47:41;;;;;;;0.30;0.25;;;;;;;10.59;100.00;100361.72;5029548;28;20120;-68
2023/12/26 03:50:07;;;;;;;0.30;0.25;;;;;;;10.57;100.00;100370.34;5030936;28;20061;-68
2023/12/26 03:52:34;;;;;;;1.13;0.30;;;;;;;10.52;100.00;100365.25;5011411;28;20014;-68
2023/12/26 03:54:59;;;;;;;0.35;0.22;;;;;;;10.49;100.00;100367.88;5021390;28;20037;-69
2023/12/26 03:57:25;;;;;;;0.73;0.40;;;;;;;10.52;100.00;100369.56;5027646;28;20049;-68
2023/12/26 03:59:50;;;;;;;0.43;0.30;;;;;;;10.50;100.00;100372.19;5022742;28;20037;-68
2023/12/26 04:02:15;;;;;;;0.20;0.13;;;;;;;10.50;100.00;100363.56;5026057;28;20381;-68
2023/12/26 04:04:41;;;;;;;1.80;0.35;;;;;;;10.52;100.00;100360.09;5025387;28;20025;-69
2023/12/26 04:07:06;;;;;;;5.28;0.45;;;;;;;10.45;100.00;100368.78;5056154;28;20064;-69
2023/12/26 04:09:32;;;;;;;0.65;0.20;;;;;;;10.44;100.00;100374.84;5025948;28;20037;-69
2023/12/26 04:11:58;;;;;;;0.30;0.17;;;;;;;10.43;100.00;100378.31;5042321;28;20037;-69
2023/12/26 04:14:23;;;;;;;1.42;0.20;;;;;;;10.43;100.00;100373.13;5023517;28;20038;-69
2023/12/26 04:16:48;;;;;;;0.85;0.52;;;;;;;10.44;100.00;100369.69;5025425;28;20037;-69
2023/12/26 04:19:14;;;;;;;0.20;0.20;;;;;;;10.46;100.00;100367.94;5019919;28;20041;-69
2023/12/26 04:21:39;;;;;;;0.43;0.20;;;;;;;10.48;100.00;100376.50;5022197;28;20046;-67
2023/12/26 04:24:05;;;;;;;1.20;0.32;;;;;;;10.51;100.00;100381.63;5023479;28;20059;-67
2023/12/26 04:26:30;;;;;;;0.25;0.20;;;;;;;10.52;100.00;100380.75;5023212;28;20038;-67
2023/12/26 04:28:56;;;;;;;0.38;0.20;;;;;;;10.56;100.00;100384.16;5038332;28;20041;-67
2023/12/26 04:31:21;;;;;;;0.38;0.10;;;;;;;10.56;100.00;100384.16;5039459;28;20377;-67
2023/12/26 04:33:47;;;;;;;0.20;0.15;;;;;;;10.58;100.00;100383.25;5056348;28;20029;-68
2023/12/26 04:36:12;;;;;;;0.28;0.22;;;;;;;10.58;100.00;100388.44;5024452;28;20033;-67
2023/12/26 04:38:38;;;;;;;0.20;0.20;;;;;;;10.63;100.00;100378.00;5025536;28;20045;-67
2023/12/26 04:41:09;;;;;;;0.25;0.10;;;;;;;10.70;100.00;100377.06;5026594;28;20510;-67
2023/12/26 04:43:34;;;;;;;0.90;0.20;;;;;;;10.70;100.00;100392.56;5025204;28;20060;-67
2023/12/26 04:46:00;;;;;;;0.45;0.20;;;;;;;10.72;100.00;100389.06;5025474;28;20405;-67
2023/12/26 04:48:25;;;;;;;0.20;0.20;;;;;;;10.79;100.00;100390.69;5025810;28;20596;-68
2023/12/26 04:50:51;;;;;;;0.10;0.10;;;;;;;10.81;100.00;100393.25;5026313;28;20095;-67
2023/12/26 04:53:16;;;;;;;0.47;0.22;;;;;;;10.84;100.00;100397.50;5007960;28;20042;-68
2023/12/26 04:55:42;;;;;;;0.55;0.20;;;;;;;10.88;100.00;100389.69;5062300;28;20144;-68
2023/12/26 04:58:07;;;;;;;0.32;0.10;;;;;;;10.93;100.00;100400.81;5058504;28;20106;-67
2023/12/26 05:00:33;;;;;;;1.55;0.30;;;;;;;10.96;100.00;100405.94;5022061;28;20171;-68
2023/12/26 05:02:58;;;;;;;1.40;0.10;;;;;;;10.99;100.00;100400.72;5007649;28;20034;-67
2023/12/26 05:05:24;;;;;;;1.17;0.65;;;;;;;11.02;100.00;100405.84;5028043;28;20049;-67
2023/12/26 05:07:49;;;;;;;0.10;0.10;;;;;;;11.02;100.00;100405.84;5026546;28;20033;-68
2023/12/26 05:10:15;;;;;;;0.10;0.10;;;;;;;11.12;100.00;100409.16;5030763;28;20568;-67
2023/12/26 05:12:40;;;;;;;0.10;0.10;;;;;;;11.10;100.00;100421.25;5029155;28;20041;-68
2023/12/26 05:15:06;;;;;;;0.10;0.10;;;;;;;11.11;100.00;100413.47;5058091;28;20064;-67
2023/12/26 05:17:32;;;;;;;0.17;0.10;;;;;;;11.09;100.00;100429.88;5025075;28;20189;-67
2023/12/26 05:19:57;;;;;;;0.10;0.10;;;;;;;11.08;100.00;100434.19;5029253;28;20132;-67
2023/12/26 05:22:23;;;;;;;0.10;0.10;;;;;;;11.14;100.00;100434.09;5021102;28;20037;-67
2023/12/26 05:24:48;;;;;;;0.20;0.20;;;;;;;11.16;100.00;100426.31;5028847;28;20463;-68
2023/12/26 05:27:13;;;;;;;0.32;0.13;;;;;;;11.17;100.00;100439.22;5024793;28;20037;-67
2023/12/26 05:29:43;;;;;;;0.93;0.20;;;;;;;11.19;100.00;100450.41;5055450;28;20029;-67
2023/12/26 05:32:09;;;;;;;0.40;0.20;;;;;;;11.23;100.00;100457.25;5022900;28;20685;-68
2023/12/26 05:34:35;;;;;;;0.17;0.10;;;;;;;11.24;100.00;100450.34;5024144;28;20064;-67
2023/12/26 05:37:00;;;;;;;0.10;0.10;;;;;;;11.24;100.00;100465.88;5034605;28;20505;-67
2023/12/26 05:39:25;;;;;;;0.13;0.10;;;;;;;11.26;100.00;100479.63;5021341;28;20037;-67
2023/12/26 05:41:51;;;;;;;0.55;0.30;;;;;;;11.23;100.00;100477.09;5022183;28;20045;-67
2023/12/26 05:44:16;;;;;;;1.45;0.20;;;;;;;11.21;100.00;100490.06;5025274;28;20080;-68
2023/12/26 05:46:43;;;;;;;0.90;0.20;;;;;;;11.19;100.00;100490.94;5025278;28;20487;-67
2023/12/26 05:49:09;;;;;;;0.98;0.30;;;;;;;11.10;100.00;100488.50;5026695;28;20033;-67
2023/12/26 05:51:34;;;;;;;0.85;0.55;;;;;;;11.12;100.00;100497.94;5027304;28;20052;-67
2023/12/26 05:54:00;;;;;;;0.55;0.30;;;;;;;11.14;100.00;100518.59;5024538;28;20559;-67
2023/12/26 05:56:25;;;;;;;1.88;0.45;;;;;;;11.13;100.00;100522.91;5023508;28;20049;-68
2023/12/26 05:58:51;;;;;;;3.80;1.55;;;;;;;11.05;100.00;100521.31;5022686;28;20029;-68
2023/12/26 06:01:16;;;;;;;2.28;0.40;;;;;;;10.98;100.00;100524.91;5016970;28;20073;-67
2023/12/26 06:03:42;;;;;;;1.27;0.82;;;;;;;10.97;100.00;100523.16;5024625;28;20033;-67
2023/12/26 06:06:14;;;;;;;1.13;0.60;;;;;;;11.02;100.00;100534.28;5021342;28;20037;-67
2023/12/26 06:08:40;;;;;;;0.40;0.22;;;;;;;11.06;100.00;100538.56;5022613;28;20037;-68
2023/12/26 06:11:07;;;;;;;0.77;0.40;;;;;;;11.02;100.00;100542.06;5023693;28;20607;-68
2023/12/26 06:13:32;;;;;;;0.40;0.30;;;;;;;11.00;100.00;100555.03;5021713;28;20025;-67
2023/12/26 06:15:58;;;;;;;0.70;0.38;;;;;;;11.02;100.00;100557.56;5022081;28;20045;-67
2023/12/26 06:18:23;;;;;;;1.17;0.30;;;;;;;11.05;100.00;100552.38;5024256;28;20520;-67
2023/12/26 06:20:48;;;;;;;1.52;0.30;;;;;;;11.04;100.00;100563.59;5052542;28;20029;-67
2023/12/26 06:23:14;;;;;;;0.77;0.30;;;;;;;11.01;100.00;100564.47;5024286;28;20026;-68
2023/12/26 06:25:40;;;;;;;1.85;0.40;;;;;;;11.00;100.00;100569.69;5024091;28;20022;-68
2023/12/26 06:28:05;;;;;;;2.15;0.50;;;;;;;11.02;100.00;100570.50;5025465;28;20061;-67
2023/12/26 06:30:31;;;;;;;1.52;0.40;;;;;;;11.03;100.00;100587.75;5006461;28;20053;-67
2023/12/26 06:32:56;;;;;;;3.55;0.60;;;;;;;11.03;100.00;100592.91;5024590;28;20037;-67
2023/12/26 06:35:22;;;;;;;2.03;0.55;;;;;;;11.04;100.00;100590.28;5026892;28;20512;-67
2023/12/26 06:37:47;;;;;;;2.80;0.70;;;;;;;11.09;100.00;100595.44;5025117;28;20048;-67
2023/12/26 06:40:13;;;;;;;2.08;0.95;;;;;;;11.12;100.00;100598.84;5022123;28;20037;-67
2023/12/26 06:42:38;;;;;;;4.57;1.35;;;;;;;11.12;100.00;100588.50;5024141;28;20076;-67
2023/12/26 06:45:04;;;;;;;3.30;0.95;;;;;;;11.11;100.00;100604.88;5022627;28;20173;-67
2023/12/26 06:47:29;;;;;;;3.15;0.80;;;;;;;11.05;100.00;100604.94;5009432;28;20116;-67
2023/12/26 06:49:55;;;;;;;3.30;0.85;;;;;;;11.02;100.00;100597.22;5007521;28;20029;-67
2023/12/26 06:52:20;;;;;;;3.90;0.80;;;;;;;11.03;100.00;100614.47;5024381;28;20056;-67
2023/12/26 06:54:46;;;;;;;5.57;0.90;;;;;;;11.06;100.00;100601.50;5024734;28;20274;-67
2023/12/26 06:57:15;;;;;;;2.20;0.80;;;;;;;11.06;100.00;100596.31;5050963;28;20041;-67
2023/12/26 06:59:45;;;;;;;4.05;0.98;;;;;;;11.06;100.00;100627.38;5016324;28;20045;-67
2023/12/26 07:02:10;;;;;;;4.30;0.93;;;;;;;11.13;100.00;100623.81;5020306;28;20029;-67
2023/12/26 07:04:36;;;;;;;3.70;0.70;;;;;;;11.06;100.00;100626.50;5023955;28;20080;-67
2023/12/26 07:07:01;;;;;;;5.68;0.80;;;;;;;11.02;99.99;100622.22;5057953;28;20044;-67
2023/12/26 07:09:27;;;;;;;4.07;0.70;;;;;;;10.95;100.00;100633.53;5042215;28;20045;-67
2023/12/26 07:11:52;;;;;;;2.15;0.68;;;;;;;10.90;100.00;100641.34;5027644;28;20052;-67
2023/12/26 07:14:18;;;;;;;3.10;0.95;;;;;;;10.89;100.00;100651.72;5028454;28;20068;-67
2023/12/26 07:16:44;;;;;;;6.22;0.98;;;;;;;10.89;100.00;100641.38;5029431;28;20029;-67
2023/12/26 07:19:09;;;;;;;3.35;0.75;;;;;;;10.88;100.00;100642.25;5053807;28;20037;-68
2023/12/26 07:21:35;;;;;;;1.63;0.52;;;;;;;10.89;99.44;100634.44;5028051;28;20087;-68
2023/12/26 07:24:01;;;;;;;3.97;0.80;;;;;;;10.89;99.50;100649.97;5024763;28;20037;-67
2023/12/26 07:26:26;;;;;;;5.22;0.80;;;;;;;10.83;100.00;100659.53;5023835;28;20045;-67
2023/12/26 07:28:52;;;;;;;1.10;0.57;;;;;;;10.80;100.00;100663.84;5027111;28;20507;-68
2023/12/26 07:31:20;;;;;;;2.30;0.95;;;;;;;10.73;100.00;100672.56;5057478;28;20037;-67
2023/12/26 07:33:47;;;;;;;1.90;0.82;;;;;;;10.76;100.00;100663.91;5022045;28;20045;-67
2023/12/26 07:36:13;;;;;;;4.72;1.27;;;;;;;10.79;99.37;100666.47;5027573;28;20037;-67
2023/12/26 07:38:39;;;;;;;2.58;1.02;;;;;;;10.79;99.50;100669.91;5029362;28;20053;-67
2023/12/26 07:41:04;;;;;;;3.47;1.13;;;;;;;10.80;98.62;100673.38;5023386;28;20040;-68
2023/12/26 07:43:30;;;;;;;4.38;0.90;;;;;;;10.85;98.16;100679.34;5026587;28;20026;-66
2023/12/26 07:45:58;;;;;;;4.80;0.90;;;;;;;10.90;97.54;100689.59;5025525;28;20057;-68
2023/12/26 07:48:24;;;;;;;3.22;1.10;;;;;;;10.93;96.63;100694.75;5027283;28;20045;-68
2023/12/26 07:50:50;;;;;;;5.40;0.85;;;;;;;10.91;96.50;100693.91;5022590;28;20053;-69
2023/12/26 07:53:15;;;;;;;4.60;1.10;;;;;;;10.89;97.04;100696.50;5044045;28;20029;-67
2023/12/26 07:55:41;;;;;;;4.40;1.35;;;;;;;10.89;96.50;100712.03;5026818;28;20065;-67
2023/12/26 07:58:08;;;;;;;4.07;1.33;;;;;;;10.85;96.98;100707.78;5025806;28;20033;-67
2023/12/26 08:00:33;;;;;;;6.97;1.50;;;;;;;10.80;96.97;100705.22;5057792;28;20036;-66
2023/12/26 08:02:59;;;;;;;3.90;1.15;;;;;;;10.76;97.44;100711.31;5059371;28;20153;-66
2023/12/26 08:05:24;;;;;;;3.85;1.33;;;;;;;10.73;98.00;100706.19;5028377;28;20663;-66
2023/12/26 08:07:50;;;;;;;2.72;1.02;;;;;;;10.70;97.83;100716.53;5028847;28;20033;-66
2023/12/26 08:10:15;;;;;;;4.93;2.00;;;;;;;10.79;96.45;100715.59;5028392;28;20041;-66
2023/12/26 08:12:41;;;;;;;6.40;1.08;;;;;;;10.74;97.02;100727.72;5041166;28;20042;-66
2023/12/26 08:15:06;;;;;;;5.35;1.27;;;;;;;10.73;96.91;100731.16;5025882;28;20103;-66
2023/12/26 08:17:32;;;;;;;7.55;1.77;;;;;;;10.83;95.53;100726.78;5028190;28;20057;-66
2023/12/26 08:19:58;;;;;;;4.30;1.05;;;;;;;10.88;94.88;100730.16;5024403;28;20037;-67
2023/12/26 08:22:23;;;;;;;5.00;1.55;;;;;;;10.93;93.69;100728.38;5027264;28;20442;-66
2023/12/26 08:24:49;;;;;;;6.40;1.40;;;;;;;10.95;93.49;100722.31;5025819;28;20613;-65
2023/12/26 08:27:18;;;;;;;4.35;1.52;;;;;;;11.01;92.60;100724.81;5024854;28;20032;-66
2023/12/26 08:29:44;;;;;;;4.05;1.08;;;;;;;11.03;92.28;100725.69;5020939;28;20098;-66
2023/12/26 08:32:09;;;;;;;4.68;1.30;;;;;;;11.04;92.63;100750.66;5058396;28;20072;-66
2023/12/26 08:34:35;;;;;;;8.02;1.40;;;;;;;11.06;92.31;100761.00;5057886;28;20053;-67
2023/12/26 08:37:00;;;;;;;5.95;1.50;;;;;;;11.05;91.98;100754.09;5019952;28;20072;-67
2023/12/26 08:39:26;;;;;;;4.50;1.25;;;;;;;11.08;91.68;100762.69;5021791;28;20069;-67
2023/12/26 08:41:51;;;;;;;3.28;1.27;;;;;;;11.08;91.99;100777.34;5024774;28;20517;-67
2023/12/26 08:44:17;;;;;;;4.00;0.95;;;;;;;11.17;90.56;100779.84;5024497;28;20029;-67
2023/12/26 08:46:42;;;;;;;5.10;1.25;;;;;;;11.15;90.47;100772.13;5023109;28;20033;-67
2023/12/26 08:49:08;;;;;;;3.80;0.85;;;;;;;11.13;90.54;100772.97;5040455;28;20037;-66
2023/12/26 08:51:38;;;;;;;5.72;1.40;;;;;;;11.11;90.25;100780.78;5037112;28;20046;-67
2023/12/26 08:54:04;;;;;;;7.20;1.55;;;;;;;11.16;88.85;100770.38;5023240;28;20053;-67
2023/12/26 08:56:29;;;;;;;6.93;1.33;;;;;;;11.20;88.61;100788.44;5026740;28;20069;-67
2023/12/26 08:58:55;;;;;;;3.88;1.65;;;;;;;11.25;88.52;100789.25;5024230;28;20121;-67
2023/12/26 09:01:20;;;;;;;3.47;1.40;;;;;;;11.32;88.86;100787.44;5057194;28;20079;-67
2023/12/26 09:03:46;;;;;;;6.35;1.95;;;;;;;11.38;88.25;100787.38;5007225;28;20033;-67
2023/12/26 09:06:11;;;;;;;4.45;1.75;;;;;;;11.42;87.47;100773.53;5021729;28;20131;-67
2023/12/26 09:08:37;;;;;;;4.07;1.17;;;;;;;11.44;87.53;100774.41;5030798;28;20120;-68
2023/12/26 09:11:03;;;;;;;7.00;1.80;;;;;;;11.45;87.50;100789.06;5025129;28;20060;-67
2023/12/26 09:13:29;;;;;;;6.05;1.92;;;;;;;11.43;89.17;100806.31;5023597;28;20038;-68
2023/12/26 09:15:55;;;;;;;4.90;1.92;;;;;;;11.43;88.52;100801.16;5025994;28;20044;-67
2023/12/26 09:18:20;;;;;;;4.30;1.40;;;;;;;11.46;88.21;100811.47;5021297;28;20508;-67
2023/12/26 09:20:46;;;;;;;5.68;1.77;;;;;;;11.50;87.53;100802.81;5019785;28;20500;-67
2023/12/26 09:23:12;;;;;;;4.40;1.20;;;;;;;11.51;86.96;100803.66;5022714;28;20441;-67
2023/12/26 09:25:37;;;;;;;4.35;1.25;;;;;;;11.53;87.80;100813.13;5024016;28;20499;-67
2023/12/26 09:28:03;;;;;;;5.05;1.40;;;;;;;11.53;87.45;100809.69;5026962;28;20043;-67
2023/12/26 09:30:28;;;;;;;3.60;0.95;;;;;;;11.50;88.09;100831.28;5024408;28;20500;-67
2023/12/26 09:32:54;;;;;;;9.15;1.85;;;;;;;11.50;88.00;100831.28;5037261;28;20038;-67
2023/12/26 09:35:19;;;;;;;5.63;1.38;;;;;;;11.48;88.48;100843.38;5009632;28;20497;-67
2023/12/26 09:37:45;;;;;;;6.25;1.33;;;;;;;11.46;88.99;100857.19;5058886;28;20470;-67
2023/12/26 09:40:13;;;;;;;6.90;1.08;;;;;;;11.46;88.60;100852.00;5041030;28;20033;-67
2023/12/26 09:42:39;;;;;;;8.27;1.40;;;;;;;11.45;88.79;100851.19;5025929;28;20037;-67
2023/12/26 09:45:10;;;;;;;8.73;1.35;;;;;;;11.41;89.18;100857.22;5024290;28;20044;-67
2023/12/26 09:47:38;;;;;;;3.95;1.50;;;;;;;11.43;88.02;100846.84;5021336;28;20042;-67
2023/12/26 09:50:04;;;;;;;4.55;1.65;;;;;;;11.43;88.55;100859.78;5023286;28;20017;-67
2023/12/26 09:52:33;;;;;;;7.28;0.95;;;;;;;11.43;88.46;100880.50;5024524;28;20103;-67
2023/12/26 09:54:58;;;;;;;4.47;1.35;;;;;;;11.44;88.01;100879.66;5026118;28;20040;-67
2023/12/26 09:57:24;;;;;;;4.75;1.30;;;;;;;11.52;86.46;100860.59;5019230;28;20049;-67
2023/12/26 09:59:51;;;;;;;3.13;1.25;;;;;;;11.58;85.80;100867.41;5022004;28;20057;-67
2023/12/26 10:02:16;;;;;;;6.47;1.30;;;;;;;11.63;85.28;100863.94;5022627;28;20053;-67
2023/12/26 10:04:42;;;;;;;5.57;1.15;;;;;;;11.71;84.62;100848.31;5027610;28;20523;-66
2023/12/26 10:07:09;;;;;;;4.55;1.20;;;;;;;11.76;84.16;100855.13;5039962;28;20128;-67
2023/12/26 10:09:35;;;;;;;4.40;1.17;;;;;;;11.80;83.75;100861.13;5024477;28;20048;-67
2023/12/26 10:12:01;;;;;;;2.47;1.10;;;;;;;11.78;83.49;100868.91;5054074;28;20033;-67
2023/12/26 10:14:31;;;;;;;5.50;1.33;;;;;;;11.78;82.49;100860.31;5024002;28;20052;-66
2023/12/26 10:16:58;;;;;;;10.90;1.50;;;;;;;11.83;83.43;100884.41;5024577;28;20026;-67
2023/12/26 10:19:24;;;;;;;6.55;1.15;;;;;;;11.89;83.58;100876.56;5025449;28;20113;-66
2023/12/26 10:21:51;;;;;;;5.57;1.60;;;;;;;11.91;80.81;100843.72;5026541;28;20026;-66
2023/12/26 10:24:20;;;;;;;4.15;1.10;;;;;;;11.96;79.44;100830.72;5025845;28;20110;-65
2023/12/26 10:26:47;;;;;;;6.50;1.20;;;;;;;12.02;79.77;100838.44;5026282;28;20061;-66
2023/12/26 10:29:13;;;;;;;5.68;1.30;;;;;;;12.06;78.16;100811.59;5056942;28;20511;-66
2023/12/26 10:31:40;;;;;;;9.00;1.25;;;;;;;11.98;78.46;100821.19;5019075;28;20032;-66
2023/12/26 10:34:22;;;;;;;9.15;1.55;;;;;;;11.99;77.00;100805.63;5023983;28;20133;-66
2023/12/26 10:36:48;;;;;;;6.85;1.30;;;;;;;12.13;76.37;100800.28;5039895;28;20038;-66
2023/12/26 10:39:14;;;;;;;6.55;1.27;;;;;;;12.12;74.24;100763.13;5026134;28;20044;-66
2023/12/26 10:41:45;;;;;;;4.82;1.38;;;;;;;12.08;73.87;100760.63;5020072;28;20041;-66
2023/12/26 10:44:13;;;;;;;9.13;1.80;;;;;;;12.23;75.20;100787.16;5028213;28;20105;-66
2023/12/26 10:46:40;;;;;;;9.15;1.48;;;;;;;12.26;73.86;100781.06;5031841;28;20025;-67
2023/12/26 10:49:08;;;;;;;7.13;1.35;;;;;;;12.27;74.13;100803.50;5028905;28;20033;-65
2023/12/26 10:51:37;;;;;;;3.40;1.30;;;;;;;12.26;73.37;100783.66;5027865;28;20087;-66
2023/12/26 10:54:13;;;;;;;7.38;1.65;;;;;;;12.23;73.06;100781.09;5044439;28;20044;-66
2023/12/26 10:56:39;;;;;;;5.65;1.35;;;;;;;12.20;72.35;100779.41;5029210;28;20120;-66
2023/12/26 10:59:06;;;;;;;5.22;1.42;;;;;;;12.18;71.95;100785.50;5028214;28;20025;-66
2023/12/26 13:53:31;;;;;;;7.13;1.92;;;;;;;10.86;80.41;101093.94;5027631;28;20527;-67
2023/12/26 13:56:34;;;;;;;7.68;2.13;;;;;;;10.82;79.46;101077.56;5054805;28;20111;-67
2023/12/26 13:59:36;;;;;;;14.55;3.00;;;;;;;10.71;81.27;101094.84;5025757;28;20037;-67
2023/12/26 14:02:39;;;;;;;8.23;1.88;;;;;;;10.65;81.44;101102.63;5028400;28;20526;-67
2023/12/26 14:05:42;;;;;;;9.38;1.90;;;;;;;10.56;81.68;101116.44;5053281;28;20030;-68
2023/12/26 14:09:03;;;;;;;10.45;1.98;;;;;;;10.52;81.15;101111.28;5029861;28;20570;-67
2023/12/26 14:12:06;;;;;;;10.43;1.80;;;;;;;10.53;78.37;101066.47;5058363;28;20060;-67